Terminal Aerodrome Forecast
Issued by NWS Bismarck, ND

Home | Current Version | Previous Version | Graphics & Text | Print | Product List | Glossary On
Versions: 1 2 3 4 5 6 7 8 9 10 11 12 13 14 15 16 17 18 19
000
FTUS43 KBIS 020538
TAFBIS
TAF
KBIS 020538Z 0206/0306 12007KT P6SM BKN100
      TEMPO 0206/0209 29015G30KT 4SM TSRA OVC040CB
     FM020900 30010KT P6SM -SHRA BKN050
     FM021200 13010KT P6SM -SHRA BKN050
      TEMPO 0217/0221 3SM TSRA BKN040CB=

USA.gov is the U.S. government's official web portal to all federal, state and local government web resources and services.